Time;durP1;ratioP1;P1;durP2;ratioP2;P2;SDS_P1;SDS_P2;PMS_P1;PMS_P2;Temp;Humidity;BMP_temperature;BMP_pressure;BME280_temperature;BME280_humidity;BME280_pressure;Samples;Min_cycle;Max_cycle;Signal;HPM_P1;HPM_P2
2024/02/05 00:02:00;;;;;;;1.40;1.30;;;8.20;87.80;;;7.46;86.64;98420.41;5066395;28;20457;-74
2024/02/05 00:04:27;;;;;;;1.40;1.30;;;8.20;87.70;;;7.51;86.79;98422.53;5065489;28;20455;-77
2024/02/05 00:06:54;;;;;;;1.00;1.00;;;8.20;87.90;;;7.43;86.63;98411.88;5074931;28;20486;-76
2024/02/05 00:09:22;;;;;;;1.63;1.53;;;8.20;88.00;;;7.43;87.58;98414.56;5066523;28;20458;-75
2024/02/05 00:11:50;;;;;;;1.90;1.47;;;8.20;88.00;;;7.51;86.94;98414.47;5068189;28;20475;-74
2024/02/05 00:14:18;;;;;;;1.80;1.70;;;8.20;88.20;;;7.45;87.05;98428.63;5063818;28;20464;-74
2024/02/05 00:16:46;;;;;;;1.47;1.37;;;8.20;88.10;;;7.41;87.54;98428.16;5058056;28;20464;-75
2024/02/05 00:19:13;;;;;;;1.30;1.20;;;8.20;88.30;;;7.44;87.62;98443.09;5062349;28;20806;-74
2024/02/05 00:21:41;;;;;;;1.50;1.40;;;8.20;88.40;;;7.45;88.08;98428.63;5054523;28;20461;-74
2024/02/05 00:24:08;;;;;;;1.50;1.40;;;8.20;88.30;;;7.46;88.25;98428.47;5062187;28;20525;-74
2024/02/05 00:26:35;;;;;;;1.37;1.10;;;8.20;88.50;;;7.46;87.97;98435.69;5065963;28;20559;-74
2024/02/05 00:29:08;;;;;;;1.70;1.60;;;8.20;88.60;;;7.44;88.55;98435.03;5065390;28;20837;-76
2024/02/05 00:31:35;;;;;;;1.40;1.30;;;8.20;88.90;;;7.41;88.94;98428.16;5065812;28;21238;-73
2024/02/05 00:34:05;;;;;;;1.40;1.30;;;8.20;89.30;;;7.47;88.52;98437.34;5058256;28;20469;-74
2024/02/05 00:36:32;;;;;;;1.83;1.73;;;8.20;89.30;;;7.44;88.75;98432.34;5067038;28;20542;-76
2024/02/05 00:39:00;;;;;;;1.80;1.30;;;8.20;89.40;;;7.29;89.38;98430.47;5061537;28;20452;-72
2024/02/05 00:41:27;;;;;;;1.97;1.50;;;8.20;89.40;;;7.37;89.56;98430.41;5066120;28;20466;-74
2024/02/05 00:43:54;;;;;;;1.63;1.40;;;8.20;89.50;;;7.42;88.86;98426.31;5054394;28;20483;-74
2024/02/05 00:46:26;;;;;;;1.87;1.60;;;8.20;89.70;;;7.40;89.31;98420.31;5065332;28;20472;-75
2024/02/05 00:48:54;;;;;;;1.60;1.00;;;8.20;89.70;;;7.42;89.22;98423.63;5065742;28;20549;-75
2024/02/05 00:51:21;;;;;;;1.43;1.33;;;8.10;89.80;;;7.37;89.01;98408.91;5068480;28;20450;-74
2024/02/05 00:53:49;;;;;;;3.53;1.47;;;8.20;90.00;;;7.41;89.33;98424.66;5064247;28;20989;-75
2024/02/05 00:56:17;;;;;;;1.63;1.30;;;8.20;90.00;;;7.44;89.89;98426.97;5074868;28;20458;-76
2024/02/05 00:58:45;;;;;;;1.27;1.27;;;8.20;90.20;;;7.03;88.90;98356.50;5063367;28;21136;-76
2024/02/05 01:01:12;;;;;;;1.30;1.20;;;8.20;90.10;;;7.48;89.19;98434.50;5066866;28;20520;-74
2024/02/05 01:03:42;;;;;;;1.50;1.40;;;8.20;90.00;;;7.53;89.55;98442.00;5066946;28;21113;-73
2024/02/05 01:06:09;;;;;;;2.10;1.60;;;8.20;90.10;;;7.49;89.20;98428.09;5060685;28;20441;-76
2024/02/05 01:08:36;;;;;;;1.20;1.10;;;8.20;90.10;;;7.47;89.99;98429.28;5069088;28;20456;-76
2024/02/05 01:11:06;;;;;;;1.37;1.27;;;8.20;90.20;;;7.44;89.74;98441.25;5063418;28;20449;-74
2024/02/05 01:13:33;;;;;;;1.30;1.20;;;8.20;90.40;;;7.52;89.77;98434.97;5063087;28;20895;-73
2024/02/05 01:16:02;;;;;;;1.53;1.43;;;8.20;90.30;;;7.47;90.22;98434.66;5069290;28;20480;-75
2024/02/05 01:18:29;;;;;;;1.50;1.40;;;8.20;90.40;;;7.35;90.60;98427.06;5068049;28;20450;-73
2024/02/05 01:20:58;;;;;;;1.77;1.60;;;8.20;90.60;;;7.45;90.61;98428.63;5067719;28;20457;-73
2024/02/05 01:23:26;;;;;;;1.43;1.33;;;8.20;90.60;;;7.44;90.76;98432.34;5067655;28;20864;-76
2024/02/05 01:25:53;;;;;;;1.40;1.30;;;8.10;90.70;;;7.47;90.45;98435.50;5064601;28;20994;-73
2024/02/05 01:28:21;;;;;;;1.50;1.40;;;8.20;90.70;;;7.40;90.60;98433.75;5076510;28;20475;-76
2024/02/05 01:30:48;;;;;;;1.47;1.37;;;8.20;90.60;;;7.38;90.85;98412.41;5063122;28;20457;-71
2024/02/05 01:33:15;;;;;;;1.57;1.47;;;8.20;90.70;;;7.41;91.03;98427.34;5078263;28;20815;-75
2024/02/05 01:35:42;;;;;;;1.67;1.50;;;8.10;90.70;;;7.51;89.82;98438.66;5073117;28;20457;-75
2024/02/05 01:38:11;;;;;;;1.80;1.00;;;8.20;90.50;;;7.49;89.94;98417.34;5071885;28;20822;-75
2024/02/05 01:40:38;;;;;;;1.20;1.10;;;8.20;90.60;;;7.61;89.44;98431.13;5069381;28;20489;-75
2024/02/05 01:43:07;;;;;;;1.27;1.17;;;8.30;90.60;;;7.54;90.42;98424.00;5072629;28;20492;-74
2024/02/05 01:45:34;;;;;;;0.97;0.97;;;8.20;90.60;;;7.55;89.97;98434.59;5066758;28;20445;-73
2024/02/05 01:48:04;;;;;;;1.13;1.07;;;8.20;90.50;;;7.54;90.00;98414.09;5072032;28;20560;-74
2024/02/05 01:50:31;;;;;;;2.53;1.07;;;8.20;90.50;;;7.67;89.12;98409.91;5058423;28;20441;-76
2024/02/05 01:53:00;;;;;;;1.20;1.10;;;8.30;90.50;;;7.45;89.51;98396.38;5056702;28;20446;-73
2024/02/05 01:55:30;;;;;;;1.10;1.00;;;8.30;90.30;;;7.24;91.68;98422.16;5086242;28;20562;-76
2024/02/05 01:57:57;;;;;;;0.63;0.63;;;8.20;90.30;;;7.35;91.08;98410.94;5061817;28;20459;-71
2024/02/05 02:00:26;;;;;;;1.20;0.93;;;8.20;90.30;;;7.43;90.00;98403.78;5067466;28;20456;-75
2024/02/05 02:02:53;;;;;;;0.87;0.87;;;8.30;90.30;;;7.56;89.91;98414.75;5067612;28;20548;-76
2024/02/05 02:05:22;;;;;;;1.47;0.80;;;8.30;90.20;;;7.50;89.97;98416.31;5061055;28;20465;-75
2024/02/05 02:07:51;;;;;;;0.80;0.80;;;8.20;90.30;;;7.52;90.18;98418.81;5056704;28;20526;-71
2024/02/05 02:10:18;;;;;;;0.90;0.90;;;8.20;90.60;;;7.56;89.58;98409.34;5060307;28;20510;-73
2024/02/05 02:12:47;;;;;;;1.33;0.90;;;8.30;90.30;;;7.57;89.22;98421.78;5077724;28;20446;-75
2024/02/05 02:15:15;;;;;;;2.10;1.13;;;8.20;90.10;;;7.47;88.90;98411.31;5057425;28;20449;-75
2024/02/05 02:17:46;;;;;;;1.10;1.00;;;8.30;90.10;;;7.62;88.33;98424.75;5057348;28;20904;-75
2024/02/05 02:20:14;;;;;;;1.17;1.00;;;8.30;89.90;;;7.53;88.81;98419.66;5064317;28;20456;-71
2024/02/05 02:22:53;;;;;;;0.97;0.90;;;8.30;89.90;;;7.56;88.73;98425.50;5062431;28;20460;-74
2024/02/05 02:25:23;;;;;;;1.80;1.00;;;8.30;90.10;;;7.58;88.39;98417.22;5059805;28;20523;-75
2024/02/05 02:27:51;;;;;;;0.90;0.77;;;8.30;89.70;;;7.48;88.76;98420.19;5057412;28;20781;-74
2024/02/05 02:30:19;;;;;;;1.00;0.90;;;8.30;89.80;;;7.58;88.62;98427.97;5059020;28;20460;-75
2024/02/05 02:33:10;;;;;;;1.20;1.00;;;8.20;89.60;;;7.53;88.44;98411.56;5060755;28;20461;-77
2024/02/05 02:35:44;;;;;;;1.40;0.87;;;8.30;89.80;;;7.46;88.30;98406.97;5064278;28;20473;-75
2024/02/05 02:38:18;;;;;;;0.80;0.80;;;8.20;89.40;;;6.94;88.83;98342.34;5057438;28;20449;-75
2024/02/05 02:40:51;;;;;;;0.80;0.80;;;8.20;89.30;;;7.41;88.07;98419.28;5062486;28;20463;-76
2024/02/05 02:43:19;;;;;;;0.90;0.90;;;8.20;89.00;;;7.45;87.77;98409.81;5067807;28;20457;-76
2024/02/05 02:45:50;;;;;;;0.60;0.60;;;8.20;88.90;;;7.46;87.65;98406.97;5063917;28;20449;-76
2024/02/05 02:48:17;;;;;;;0.70;0.70;;;8.20;88.70;;;7.39;88.04;98399.81;5060281;28;21348;-73
2024/02/05 02:50:44;;;;;;;1.20;1.10;;;8.20;88.60;;;7.35;88.37;98408.25;5063184;28;20526;-76
2024/02/05 02:53:11;;;;;;;3.20;1.00;;;8.10;88.60;;;7.46;87.58;98409.66;5072133;28;20455;-75
2024/02/05 02:55:39;;;;;;;0.80;0.80;;;8.10;88.80;;;7.34;88.02;98401.19;5078485;28;20448;-75
2024/02/05 02:58:07;;;;;;;0.47;0.47;;;8.10;88.60;;;7.33;87.92;98404.91;5058883;28;21035;-73
2024/02/05 03:00:35;;;;;;;1.00;0.90;;;8.10;88.60;;;7.38;87.67;98407.03;5058458;28;20455;-76
2024/02/05 03:03:03;;;;;;;0.80;0.80;;;8.10;88.80;;;7.32;87.46;98384.41;5068576;28;20961;-75
2024/02/05 03:05:30;;;;;;;0.80;0.80;;;8.10;88.50;;;7.35;87.88;98402.03;5061925;28;20472;-76
2024/02/05 03:07:57;;;;;;;0.70;0.70;;;8.10;88.60;;;7.29;88.29;98408.97;5058633;28;20474;-72
2024/02/05 03:10:24;;;;;;;0.80;0.60;;;8.00;88.70;;;7.33;88.56;98402.22;5060414;28;20539;-75
2024/02/05 03:12:52;;;;;;;0.67;0.67;;;8.00;88.90;;;7.33;87.83;98409.47;5067630;28;20450;-74
2024/02/05 03:15:20;;;;;;;0.83;0.70;;;8.00;88.90;;;7.28;88.48;98410.00;5071022;28;20457;-75
2024/02/05 03:17:47;;;;;;;0.70;0.70;;;8.10;88.90;;;7.33;88.34;98414.84;5072612;28;20951;-74
2024/02/05 03:20:34;;;;;;;1.07;1.00;;;8.00;88.80;;;7.31;87.91;98417.69;5066501;28;20445;-75
2024/02/05 03:23:03;;;;;;;1.27;0.80;;;8.10;89.10;;;7.34;88.40;98417.31;5076260;28;20452;-74
2024/02/05 03:25:30;;;;;;;0.80;0.80;;;8.00;89.00;;;7.22;88.72;98422.31;5065730;28;20494;-74
2024/02/05 03:27:58;;;;;;;1.20;0.77;;;8.00;89.00;;;7.27;88.56;98427.16;5062387;28;20478;-72
2024/02/05 03:30:30;;;;;;;0.87;0.63;;;8.00;89.30;;;7.33;88.66;98426.41;5061097;28;20670;-74
2024/02/05 03:32:58;;;;;;;0.80;0.80;;;8.10;89.20;;;7.33;88.58;98409.47;5065936;28;20460;-70
2024/02/05 03:35:26;;;;;;;0.70;0.70;;;8.10;89.30;;;7.19;88.08;98420.00;5060202;28;20454;-74
2024/02/05 03:37:54;;;;;;;0.70;0.70;;;8.10;88.90;;;7.18;89.47;98425.56;5061134;28;20446;-74
2024/02/05 03:40:22;;;;;;;1.70;0.93;;;8.10;89.00;;;7.18;88.46;98407.59;5065842;28;20445;-74
2024/02/05 03:42:50;;;;;;;0.90;0.90;;;8.10;88.90;;;7.33;88.53;98423.72;5067685;28;20457;-74
2024/02/05 03:45:17;;;;;;;1.20;1.13;;;8.10;88.90;;;7.30;88.15;98420.59;5065820;28;20462;-74
2024/02/05 03:47:47;;;;;;;2.90;0.80;;;8.10;88.80;;;7.36;88.02;98426.06;5067596;28;20477;-76
2024/02/05 03:50:14;;;;;;;1.50;0.90;;;8.10;88.90;;;7.31;88.17;98420.38;5064772;28;20457;-76
2024/02/05 03:52:45;;;;;;;1.27;1.17;;;8.10;88.90;;;7.31;88.13;98428.44;5057747;28;20452;-75
2024/02/05 03:55:13;;;;;;;0.83;0.80;;;8.10;88.80;;;7.15;88.79;98437.53;5066419;28;20688;-76
2024/02/05 03:57:42;;;;;;;0.93;0.83;;;8.20;88.70;;;7.16;88.25;98431.13;5063072;28;20547;-76
2024/02/05 04:00:11;;;;;;;0.87;0.87;;;8.20;88.50;;;7.12;89.05;98429.81;5065494;28;20449;-74
2024/02/05 04:02:39;;;;;;;0.60;0.60;;;8.10;88.70;;;7.22;88.93;98424.19;5082394;28;20464;-75
2024/02/05 04:05:10;;;;;;;1.03;0.93;;;8.10;88.60;;;7.27;88.43;98431.69;5065268;28;20456;-74
2024/02/05 04:07:38;;;;;;;1.00;0.80;;;8.10;88.70;;;7.39;88.10;98442.84;5064741;28;20472;-75
2024/02/05 04:10:06;;;;;;;1.23;1.13;;;8.20;88.60;;;7.36;87.58;98441.34;5080328;28;20454;-74
2024/02/05 04:12:34;;;;;;;1.73;1.03;;;8.10;88.40;;;7.28;88.17;98444.94;5060586;28;20480;-73
2024/02/05 04:15:01;;;;;;;1.20;1.00;;;8.10;88.50;;;7.33;87.93;98447.91;5059813;28;20452;-75
2024/02/05 04:17:28;;;;;;;2.70;0.80;;;8.10;88.60;;;7.40;87.63;98439.13;5063227;28;20933;-75
2024/02/05 04:19:56;;;;;;;1.10;1.00;;;8.20;88.50;;;7.30;87.95;98453.66;5062929;28;20450;-74
2024/02/05 04:22:24;;;;;;;1.30;0.80;;;8.10;88.60;;;7.32;88.54;98453.47;5062543;28;20453;-73
2024/02/05 04:24:52;;;;;;;0.90;0.90;;;8.10;88.90;;;7.33;88.38;98442.53;5064802;28;20458;-74
2024/02/05 04:27:19;;;;;;;0.97;0.97;;;8.10;88.70;;;7.37;87.88;98459.13;5066525;28;20453;-75
2024/02/05 04:29:47;;;;;;;1.20;1.00;;;8.20;88.60;;;7.34;88.25;98452.25;5066871;28;20540;-76
2024/02/05 04:32:14;;;;;;;1.67;0.77;;;8.20;88.80;;;7.34;87.56;98452.25;5063508;28;20457;-78
2024/02/05 04:34:41;;;;;;;1.50;1.03;;;8.20;88.90;;;6.98;87.87;98395.72;5062449;28;20536;-76
2024/02/05 04:37:09;;;;;;;0.80;0.80;;;8.20;88.50;;;7.28;87.69;98449.47;5056921;28;20979;-76
2024/02/05 04:39:38;;;;;;;0.97;0.73;;;8.20;88.20;;;7.36;87.66;98452.09;5064435;28;20543;-75
2024/02/05 04:42:05;;;;;;;0.90;0.90;;;8.20;88.50;;;7.39;87.58;98461.66;5063405;28;20877;-76
2024/02/05 04:44:33;;;;;;;1.50;1.00;;;8.20;88.30;;;6.94;87.28;98389.88;5066280;28;20449;-78
2024/02/05 04:47:00;;;;;;;0.80;0.70;;;8.20;88.30;;;7.45;87.31;98458.22;5067296;28;20519;-75
2024/02/05 04:49:28;;;;;;;1.20;0.90;;;8.20;88.30;;;7.41;87.09;98460.44;5063519;28;20844;-75
2024/02/05 04:51:55;;;;;;;3.13;1.60;;;8.20;88.20;;;7.40;87.67;98468.69;5060842;28;20450;-76
2024/02/05 04:54:23;;;;;;;1.70;1.13;;;8.20;88.20;;;7.41;86.38;98454.22;5070595;28;20940;-75
2024/02/05 04:56:51;;;;;;;1.90;1.30;;;8.20;88.10;;;7.43;86.83;98452.19;5069978;28;20509;-75
2024/02/05 04:59:18;;;;;;;1.40;1.20;;;8.20;88.10;;;7.33;87.30;98447.91;5067365;28;20864;-76
2024/02/05 05:01:46;;;;;;;2.00;1.20;;;8.20;88.10;;;7.39;87.68;98456.28;5063169;28;20469;-75
2024/02/05 05:04:13;;;;;;;0.90;0.90;;;8.10;88.20;;;7.44;87.20;98443.94;5062931;28;20453;-73
2024/02/05 05:06:43;;;;;;;1.23;1.10;;;8.10;88.20;;;7.40;86.60;98436.44;5073790;28;20485;-72
2024/02/05 05:09:11;;;;;;;1.37;1.17;;;8.10;88.00;;;7.40;87.08;98448.00;5060546;28;20495;-74
2024/02/05 05:11:38;;;;;;;2.10;1.20;;;8.10;88.20;;;7.46;86.54;98459.88;5065713;28;20548;-74
2024/02/05 05:14:07;;;;;;;1.47;1.37;;;8.20;88.10;;;7.46;86.43;98462.56;5070986;28;20452;-73
2024/02/05 05:16:34;;;;;;;1.37;1.07;;;8.20;88.10;;;7.34;86.70;98464.88;5064732;28;20452;-74
2024/02/05 05:19:02;;;;;;;1.37;1.27;;;8.10;88.00;;;7.46;86.94;98449.13;5078733;28;20453;-76
2024/02/05 05:21:29;;;;;;;1.93;1.40;;;8.20;88.00;;;6.92;87.13;98381.16;5065235;28;20455;-75
2024/02/05 05:23:56;;;;;;;1.50;1.40;;;8.10;88.00;;;7.33;87.39;98445.22;5061690;28;20456;-70
2024/02/05 05:26:24;;;;;;;1.60;1.43;;;8.10;88.10;;;7.42;87.18;98461.28;5060891;28;20459;-77
2024/02/05 05:28:51;;;;;;;1.83;1.00;;;8.10;88.00;;;7.39;86.83;98464.34;5065304;28;20584;-77
2024/02/05 05:31:20;;;;;;;2.43;1.37;;;8.20;88.00;;;7.29;87.27;98457.38;5065181;28;20457;-72
2024/02/05 05:33:48;;;;;;;1.80;1.33;;;8.10;87.90;;;7.37;86.31;98465.34;5070806;28;20463;-75
2024/02/05 05:36:15;;;;;;;1.37;1.00;;;8.20;87.90;;;7.40;86.88;98474.88;5066326;28;20453;-75
2024/02/05 05:38:42;;;;;;;2.00;1.50;;;8.10;87.70;;;7.47;86.56;98475.84;5058438;28;20461;-72
2024/02/05 05:41:10;;;;;;;6.10;1.37;;;8.20;87.80;;;7.49;86.18;98472.94;5074811;28;20465;-72
2024/02/05 05:43:37;;;;;;;1.60;1.23;;;8.20;87.70;;;7.48;86.45;98473.97;5074405;28;20455;-74
2024/02/05 05:46:05;;;;;;;1.70;1.30;;;8.20;87.60;;;7.53;86.27;98468.91;5058521;28;20453;-74
2024/02/05 05:48:33;;;;;;;1.90;1.40;;;8.30;87.60;;;7.56;86.14;98471.22;5066551;28;20488;-75
2024/02/05 05:51:01;;;;;;;1.60;1.20;;;8.30;87.60;;;7.54;86.15;98457.13;5065935;28;20449;-73
2024/02/05 05:53:28;;;;;;;1.20;1.10;;;8.30;87.50;;;7.56;85.84;98473.91;5073422;28;20460;-74
2024/02/05 05:55:55;;;;;;;1.90;1.60;;;8.30;87.50;;;7.62;86.23;98483.91;5085209;28;20453;-73
2024/02/05 05:58:22;;;;;;;2.00;1.30;;;8.30;88.00;;;7.59;85.86;98472.69;5064930;28;20439;-72
2024/02/05 06:00:50;;;;;;;1.30;1.20;;;8.40;87.50;;;7.62;85.82;98478.53;5069210;28;20570;-72
2024/02/05 06:03:17;;;;;;;1.40;1.30;;;8.30;87.60;;;7.72;85.32;98464.78;5067559;28;20465;-71
2024/02/05 06:05:47;;;;;;;2.63;1.70;;;8.40;87.80;;;7.68;86.00;98478.81;5068831;28;20511;-73
2024/02/05 06:08:15;;;;;;;1.63;1.43;;;8.40;87.70;;;7.53;85.90;98479.66;5067634;28;21069;-71
2024/02/05 06:10:44;;;;;;;2.30;1.60;;;8.30;87.20;;;7.74;85.81;98480.75;5080847;28;20506;-71
2024/02/05 06:13:11;;;;;;;1.87;1.67;;;8.40;87.70;;;7.44;85.76;98470.00;5059311;28;20532;-72
2024/02/05 06:15:39;;;;;;;1.53;1.37;;;8.40;87.30;;;7.70;85.93;98476.78;5068042;28;20487;-73
2024/02/05 06:18:06;;;;;;;2.20;1.20;;;8.40;87.60;;;7.63;85.61;98469.44;5080174;28;20494;-72
2024/02/05 06:20:33;;;;;;;1.60;1.30;;;8.40;87.20;;;7.62;85.38;98472.31;5060445;28;20449;-74
2024/02/05 06:23:02;;;;;;;2.30;1.70;;;8.40;87.10;;;7.76;85.19;98478.72;5061837;28;20869;-72
2024/02/05 06:25:29;;;;;;;1.73;1.40;;;8.40;87.10;;;7.50;85.68;98470.09;5062359;28;20464;-75
2024/02/05 06:27:56;;;;;;;2.27;1.80;;;8.40;87.00;;;7.65;86.46;98474.63;5059568;28;20449;-74
2024/02/05 06:30:24;;;;;;;4.53;1.63;;;8.40;87.40;;;7.60;84.95;98480.56;5061553;28;20453;-72
2024/02/05 06:32:51;;;;;;;1.63;1.10;;;8.40;86.80;;;7.54;85.21;98470.56;5064390;28;20457;-74
2024/02/05 06:35:18;;;;;;;1.70;1.60;;;8.40;86.80;;;7.56;85.32;98489.19;5062454;28;20481;-73
2024/02/05 06:37:45;;;;;;;1.57;1.40;;;8.40;86.90;;;7.52;85.02;98461.84;5061210;28;20461;-74
2024/02/05 06:40:15;;;;;;;2.50;1.60;;;8.40;86.80;;;7.53;85.84;98486.88;5058110;28;20603;-73
2024/02/05 06:42:43;;;;;;;1.50;1.00;;;8.30;86.80;;;7.58;85.57;98489.81;5059170;28;20458;-73
2024/02/05 06:45:11;;;;;;;1.37;1.03;;;8.30;86.90;;;7.57;85.12;98507.84;5059369;28;21011;-75
2024/02/05 06:47:38;;;;;;;1.30;1.20;;;8.30;86.80;;;7.54;85.55;98502.81;5063819;28;20462;-73
2024/02/05 06:50:10;;;;;;;1.60;1.50;;;8.30;86.80;;;7.61;85.54;98500.25;5061862;28;21069;-73
2024/02/05 06:52:37;;;;;;;1.93;1.60;;;8.30;86.80;;;7.63;85.14;98506.28;5063886;28;20446;-72
2024/02/05 06:55:05;;;;;;;2.10;1.60;;;8.30;86.90;;;7.67;84.82;98506.75;5058915;28;20475;-76
2024/02/05 06:57:35;;;;;;;2.30;1.43;;;8.40;86.90;;;7.43;85.40;98500.59;5064414;28;20463;-73
2024/02/05 07:00:03;;;;;;;4.90;1.70;;;8.40;86.70;;;7.27;85.59;98466.63;5062618;28;20457;-79
2024/02/05 07:02:30;;;;;;;1.73;1.40;;;8.40;86.70;;;7.49;85.11;98507.91;5059123;28;20452;-80
2024/02/05 07:04:57;;;;;;;1.97;1.47;;;8.40;86.40;;;7.59;84.80;98508.47;5053462;28;20453;-74
2024/02/05 07:07:24;;;;;;;1.90;1.40;;;8.40;86.50;;;7.64;84.94;98502.56;5054514;28;21134;-78
2024/02/05 07:09:52;;;;;;;2.57;1.77;;;8.40;86.40;;;7.71;84.58;98508.84;5059134;28;20484;-77
2024/02/05 07:12:19;;;;;;;1.93;1.73;;;8.50;86.30;;;7.68;84.31;98509.22;5074109;28;20498;-77
2024/02/05 07:14:49;;;;;;;2.10;1.87;;;8.50;86.40;;;7.94;84.30;98524.09;5058211;28;20472;-75
2024/02/05 07:17:17;;;;;;;3.30;1.47;;;8.60;86.50;;;7.92;83.36;98535.00;5074823;28;20449;-76
2024/02/05 07:19:44;;;;;;;5.30;1.80;;;8.60;86.20;;;7.88;83.28;98522.97;5062028;28;20512;-72
2024/02/05 07:22:13;;;;;;;2.30;1.70;;;8.60;86.10;;;8.05;83.72;98538.91;5062345;28;20456;-78
2024/02/05 07:24:45;;;;;;;1.43;1.20;;;8.70;86.50;;;7.88;83.20;98547.19;5057281;28;20450;-79
2024/02/05 07:27:12;;;;;;;4.47;2.13;;;8.60;85.70;;;7.76;84.38;98536.06;5061794;28;20500;-78
2024/02/05 07:29:42;;;;;;;3.67;1.60;;;8.60;85.90;;;7.79;84.19;98537.50;5054699;28;20468;-74
2024/02/05 07:32:13;;;;;;;3.63;2.00;;;8.50;86.40;;;7.77;83.77;98534.19;5063001;28;20479;-73
2024/02/05 07:34:41;;;;;;;3.50;2.23;;;8.50;86.00;;;7.78;83.19;98543.91;5060464;28;20555;-75
2024/02/05 07:37:08;;;;;;;3.17;1.60;;;8.50;85.90;;;7.82;83.64;98542.56;5056997;28;20453;-73
2024/02/05 07:39:36;;;;;;;3.83;1.77;;;8.50;86.10;;;7.80;83.66;98542.72;5050429;28;20547;-74
2024/02/05 07:42:04;;;;;;;4.77;2.07;;;8.50;86.00;;;7.86;83.22;98546.53;5067516;28;20468;-75
2024/02/05 07:44:32;;;;;;;3.80;1.77;;;8.50;86.00;;;7.83;83.64;98548.75;5070045;28;20499;-74
2024/02/05 07:46:59;;;;;;;2.17;1.47;;;8.50;86.00;;;7.89;82.95;98548.03;5056555;28;20456;-75
2024/02/05 07:49:28;;;;;;;2.10;1.50;;;8.50;86.10;;;7.87;83.23;98553.59;5055557;28;20477;-75
2024/02/05 07:51:56;;;;;;;3.77;1.60;;;8.60;85.90;;;7.78;83.47;98550.16;5056929;28;20538;-77
2024/02/05 07:54:26;;;;;;;5.13;1.57;;;8.60;85.80;;;7.88;83.05;98549.03;5056034;28;20546;-76
2024/02/05 07:56:54;;;;;;;1.43;1.33;;;8.60;85.90;;;7.90;83.56;98561.28;5062094;28;20510;-75
2024/02/05 07:59:22;;;;;;;3.03;2.03;;;8.60;85.90;;;7.97;82.65;98555.19;5054595;28;20460;-74
2024/02/05 08:01:49;;;;;;;2.77;2.20;;;8.60;85.70;;;8.02;82.97;98574.28;5059411;28;20502;-74
2024/02/05 08:04:16;;;;;;;3.37;1.30;;;8.60;85.60;;;8.02;81.84;98563.50;5056054;28;20474;-75
2024/02/05 08:06:45;;;;;;;2.10;1.80;;;8.70;85.40;;;8.04;81.72;98566.84;5054710;28;20444;-75
2024/02/05 08:09:13;;;;;;;3.77;1.20;;;8.80;85.50;;;7.97;82.39;98565.94;5057357;28;20480;-74
2024/02/05 08:11:43;;;;;;;4.77;1.57;;;8.70;85.30;;;7.62;82.58;98515.34;5055297;28;20449;-74
2024/02/05 08:14:11;;;;;;;11.33;1.87;;;8.70;85.20;;;8.19;81.33;98574.94;5058633;28;20960;-75
2024/02/05 08:16:38;;;;;;;2.80;1.77;;;8.80;85.30;;;8.12;81.63;98574.84;5056499;28;20465;-76
2024/02/05 08:19:06;;;;;;;3.63;1.57;;;8.80;85.20;;;8.22;81.04;98567.31;5056337;28;20454;-73
2024/02/05 08:21:33;;;;;;;5.60;1.70;;;8.80;85.00;;;8.17;80.94;98563.50;5432475;22;21060;-72
2024/02/05 08:24:02;;;;;;;3.03;1.97;;;8.90;84.90;;;8.18;80.77;98574.09;5053382;28;20543;-74
2024/02/05 08:26:30;;;;;;;2.73;1.50;;;8.80;84.80;;;8.23;81.29;98566.28;5059807;28;20478;-71
2024/02/05 08:28:58;;;;;;;5.03;1.57;;;8.80;84.70;;;8.23;80.93;98574.34;5052139;28;20481;-74
2024/02/05 08:31:26;;;;;;;7.27;1.90;;;8.90;84.50;;;8.33;80.59;98571.38;5044366;28;20580;-73
2024/02/05 08:33:53;;;;;;;2.80;1.57;;;8.90;84.50;;;8.24;80.18;98583.28;5055703;28;20450;-72
2024/02/05 08:36:21;;;;;;;3.33;1.67;;;8.90;84.40;;;8.15;80.08;98590.63;5056081;28;21330;-73
2024/02/05 08:38:48;;;;;;;1.60;1.43;;;8.90;84.20;;;8.21;79.90;98580.97;5037489;28;20459;-73
2024/02/05 08:41:17;;;;;;;2.47;1.83;;;8.90;84.30;;;8.28;80.02;98589.97;5057213;28;20468;-74
2024/02/05 08:43:45;;;;;;;7.43;2.10;;;8.90;84.30;;;8.32;79.78;98579.66;5062537;28;20492;-74
2024/02/05 08:46:12;;;;;;;4.07;1.90;;;9.00;84.30;;;8.31;79.94;98583.38;5042588;28;20500;-75
2024/02/05 08:48:40;;;;;;;4.30;1.73;;;9.00;84.00;;;8.38;79.07;98578.91;5060742;28;20941;-72
2024/02/05 08:51:08;;;;;;;2.80;1.53;;;9.00;84.00;;;8.51;78.92;98583.66;5042442;28;20466;-76
2024/02/05 08:53:35;;;;;;;5.57;1.93;;;9.10;84.00;;;8.63;78.48;98581.31;5058845;28;20462;-75
2024/02/05 08:56:02;;;;;;;2.60;1.70;;;9.20;83.70;;;8.57;78.25;98576.66;5045288;28;20460;-76
2024/02/05 08:58:32;;;;;;;4.40;1.70;;;9.20;83.40;;;8.45;78.49;98569.06;5059329;28;20465;-76
2024/02/05 09:00:59;;;;;;;4.00;1.90;;;9.10;83.30;;;8.40;78.20;98558.00;5044819;28;20468;-77
2024/02/05 09:03:26;;;;;;;6.20;2.20;;;9.20;83.30;;;8.63;77.38;98565.97;5057689;28;20834;-74
2024/02/05 09:05:53;;;;;;;6.13;2.23;;;9.20;83.10;;;8.73;76.95;98576.47;5056520;28;21136;-74
2024/02/05 09:08:21;;;;;;;5.63;2.20;;;9.30;83.10;;;8.76;77.01;98576.09;5057865;28;20498;-74
2024/02/05 09:10:48;;;;;;;3.00;2.07;;;9.40;82.80;;;8.72;77.05;98571.25;5048254;28;20472;-74
2024/02/05 09:13:15;;;;;;;5.60;2.20;;;9.40;82.60;;;8.86;75.96;98573.06;5059168;28;20455;-74
2024/02/05 09:15:44;;;;;;;3.90;1.90;;;9.50;82.60;;;8.66;75.96;98572.84;5039413;28;20847;-73
2024/02/05 09:18:12;;;;;;;4.20;2.37;;;9.50;82.40;;;8.54;77.48;98572.50;5056433;28;20795;-72
2024/02/05 09:20:41;;;;;;;5.67;1.80;;;9.50;82.10;;;8.62;76.55;98579.66;5058789;28;20459;-71
2024/02/05 09:23:09;;;;;;;2.50;1.80;;;9.50;82.00;;;8.54;76.53;98571.66;5042953;28;20465;-75
2024/02/05 09:25:38;;;;;;;4.97;2.27;;;9.50;82.00;;;9.00;75.05;98571.34;5055800;28;20470;-73
2024/02/05 09:28:10;;;;;;;3.80;1.50;;;9.60;81.90;;;8.95;74.75;98562.16;5056433;28;20502;-73
2024/02/05 09:30:44;;;;;;;5.30;2.17;;;9.70;81.40;;;9.09;74.27;98573.94;5062026;28;20977;-77
2024/02/05 09:33:15;;;;;;;6.10;2.17;;;9.80;81.40;;;8.90;74.53;98568.16;5063915;28;20452;-76
2024/02/05 09:35:43;;;;;;;2.77;1.73;;;9.70;81.20;;;8.82;73.62;98557.47;5063468;28;20460;-78
2024/02/05 09:38:11;;;;;;;3.80;2.33;;;9.60;81.00;;;9.03;74.41;98564.75;5064463;28;21219;-75
2024/02/05 09:40:38;;;;;;;6.27;1.93;;;9.60;81.00;;;9.07;73.90;98561.47;5060955;28;20458;-73
2024/02/05 09:43:07;;;;;;;5.43;2.30;;;9.70;80.80;;;8.94;73.81;98566.72;5056842;28;20458;-77
2024/02/05 09:45:39;;;;;;;11.13;2.17;;;9.80;80.60;;;8.76;73.27;98515.97;5067353;28;20443;-74
2024/02/05 09:48:10;;;;;;;2.33;1.63;;;9.80;80.30;;;9.22;72.97;98557.88;5044906;28;20448;-75
2024/02/05 09:50:39;;;;;;;3.47;2.20;;;9.90;80.40;;;9.06;72.62;98567.91;5063099;28;20471;-76
2024/02/05 09:53:09;;;;;;;3.80;1.43;;;9.80;79.90;;;8.99;72.67;98563.47;5042990;28;20450;-76
2024/02/05 09:55:38;;;;;;;2.60;1.80;;;9.80;79.80;;;9.05;72.50;98565.38;5056600;28;20502;-74
2024/02/05 09:58:06;;;;;;;5.13;2.40;;;9.80;79.90;;;9.33;72.22;98568.16;5062912;28;20456;-75
2024/02/05 10:00:33;;;;;;;4.60;2.03;;;9.90;80.00;;;9.40;71.19;98545.78;5066582;28;20677;-75
2024/02/05 10:03:01;;;;;;;5.33;1.83;;;10.10;78.50;;;9.45;71.29;98562.22;5047598;28;20477;-74
2024/02/05 10:05:30;;;;;;;3.40;1.40;;;10.00;78.50;;;9.60;70.91;98565.66;5066916;28;20459;-79
2024/02/05 10:07:59;;;;;;;7.38;2.58;;;10.20;78.30;;;9.55;70.62;98567.25;5056171;28;21009;-73
2024/02/05 10:10:29;;;;;;;4.70;2.00;;;10.20;78.00;;;9.55;70.11;98564.56;5059690;28;20217;-77
2024/02/05 10:12:57;;;;;;;5.30;2.13;;;10.20;77.90;;;9.64;70.01;98558.84;5063770;28;21271;-73
2024/02/05 10:15:24;;;;;;;5.03;1.80;;;10.30;77.80;;;9.53;70.96;98554.00;5060472;28;20452;-77
2024/02/05 10:17:52;;;;;;;5.73;2.23;;;10.20;77.60;;;9.60;70.49;98549.47;5065819;28;20946;-76
2024/02/05 10:20:33;;;;;;;3.23;2.00;;;10.20;77.60;;;9.82;69.64;98557.53;5047878;28;20463;-79
2024/02/05 10:23:00;;;;;;;3.53;1.70;;;10.30;77.60;;;9.83;68.42;98542.16;5058430;28;20457;-74
2024/02/05 10:25:28;;;;;;;5.03;2.20;;;10.50;77.10;;;9.77;68.62;98549.16;5068881;28;20451;-77
2024/02/05 10:28:01;;;;;;;5.70;2.03;;;10.40;76.90;;;9.64;69.01;98542.66;5062391;28;21028;-78
2024/02/05 10:30:29;;;;;;;7.20;1.97;;;10.40;76.90;;;9.61;70.09;98551.13;5042877;28;20488;-78
2024/02/05 10:32:57;;;;;;;8.37;2.33;;;10.30;77.10;;;9.57;69.49;98552.56;5063643;28;20443;-73
2024/02/05 10:35:25;;;;;;;3.33;2.03;;;10.30;77.00;;;9.83;68.91;98555.66;5043969;28;20513;-75
2024/02/05 10:37:56;;;;;;;7.30;2.27;;;10.40;76.80;;;10.07;67.91;98548.94;5045781;28;21147;-77